Time,TemperatureF,DewpointF,PressureIn,WindDirection,WindDirectionDegrees,WindSpeedMPH,WindSpeedGustMPH,Humidity,HourlyPrecipIn,Conditions,Clouds,dailyrainin,SoftwareType,DateUTC
2013-04-08 00:03:00,52.0,44.0,-100.00,SW,233,1.0,2.0,74,0.00,,,0.00,,2013-04-08 04:03:00,
2013-04-08 00:13:00,52.0,45.0,-100.00,WSW,248,2.0,4.0,75,0.00,,,0.00,,2013-04-08 04:13:00,
2013-04-08 00:23:00,53.0,44.0,-100.00,West,260,2.0,3.0,73,0.00,,,-99.99,,2013-04-08 04:23:00,
2013-04-08 00:34:00,53.0,44.0,-100.00,West,260,2.0,3.0,73,0.00,,,-99.99,,2013-04-08 04:34:00,
2013-04-08 00:44:00,53.0,44.0,-100.00,West,260,2.0,3.0,73,0.00,,,-99.99,,2013-04-08 04:44:00,
2013-04-08 00:53:00,53.0,44.0,-100.00,WSW,254,3.0,5.0,72,0.00,,,-99.99,,2013-04-08 04:53:00,
2013-04-08 01:02:00,53.0,44.0,-100.00,WSW,254,3.0,5.0,72,0.00,,,-99.99,,2013-04-08 05:02:00,
2013-04-08 01:12:00,55.0,42.0,-100.00,WSW,237,3.0,5.0,62,0.00,,,-99.99,,2013-04-08 05:12:00,
2013-04-08 01:22:00,55.0,42.0,-100.00,WSW,237,3.0,5.0,62,0.00,,,-99.99,,2013-04-08 05:22:00,
2013-04-08 01:32:00,56.0,41.0,-100.00,SW,217,2.0,4.0,57,0.00,,,-99.99,,2013-04-08 05:32:00,
2013-04-08 01:42:00,56.0,41.0,-100.00,SW,217,2.0,4.0,57,0.00,,,-99.99,,2013-04-08 05:42:00,
2013-04-08 01:53:00,56.0,41.0,-100.00,SW,217,2.0,4.0,57,0.00,,,-99.99,,2013-04-08 05:53:00,
2013-04-08 02:02:00,58.0,43.0,-100.00,WSW,247,4.0,8.0,57,0.00,,,-99.99,,2013-04-08 06:02:00,
2013-04-08 02:12:00,58.0,43.0,-100.00,WSW,247,4.0,8.0,57,0.00,,,-99.99,,2013-04-08 06:12:00,
2013-04-08 02:22:00,57.0,44.0,-100.00,WSW,243,2.0,5.0,61,0.00,,,-99.99,,2013-04-08 06:22:00,
2013-04-08 02:32:00,57.0,44.0,-100.00,WSW,243,2.0,5.0,61,0.00,,,-99.99,,2013-04-08 06:32:00,
2013-04-08 02:42:00,57.0,44.0,-100.00,WSW,243,2.0,5.0,61,0.00,,,-99.99,,2013-04-08 06:42:00,
2013-04-08 02:52:00,57.0,45.0,-100.00,WSW,250,4.0,8.0,64,0.00,,,-99.99,,2013-04-08 06:52:00,
2013-04-08 03:02:00,57.0,46.0,-100.00,WSW,248,4.0,7.0,66,0.00,,,-99.99,,2013-04-08 07:02:00,
2013-04-08 03:12:00,57.0,46.0,-100.00,WSW,248,4.0,7.0,66,0.00,,,-99.99,,2013-04-08 07:12:00,
2013-04-08 03:22:00,57.0,47.0,-100.00,North,-999,4.0,7.0,68,0.00,,,-99.99,,2013-04-08 07:22:00,
2013-04-08 03:33:00,57.0,47.0,-100.00,North,-999,4.0,7.0,68,0.00,,,-99.99,,2013-04-08 07:33:00,
2013-04-08 03:42:00,57.0,47.0,-100.00,North,-999,4.0,7.0,68,0.00,,,-99.99,,2013-04-08 07:42:00,
2013-04-08 03:53:00,57.0,47.0,-100.00,WSW,248,3.0,5.0,70,0.00,,,-99.99,,2013-04-08 07:53:00,
2013-04-08 04:02:00,57.0,47.0,-100.00,WSW,248,3.0,5.0,70,0.00,,,-99.99,,2013-04-08 08:02:00,
2013-04-08 04:12:00,57.0,47.0,-100.00,WSW,248,3.0,5.0,70,0.00,,,-99.99,,2013-04-08 08:12:00,
2013-04-08 04:22:00,58.0,48.0,-100.00,WSW,257,5.0,7.0,70,0.00,,,-99.99,,2013-04-08 08:22:00,
2013-04-08 04:33:00,57.0,48.0,-100.00,West,265,4.0,6.0,72,0.00,,,-99.99,,2013-04-08 08:33:00,
2013-04-08 04:42:00,57.0,48.0,-100.00,West,265,4.0,6.0,72,0.00,,,-99.99,,2013-04-08 08:42:00,
2013-04-08 04:52:00,57.0,48.0,-100.00,WSW,246,3.0,6.0,73,0.00,,,-99.99,,2013-04-08 08:52:00,
2013-04-08 05:02:00,57.0,48.0,-100.00,WSW,246,3.0,6.0,73,0.00,,,-99.99,,2013-04-08 09:02:00,
2013-04-08 05:12:00,56.0,49.0,-100.00,WSW,254,4.0,6.0,75,0.00,,,-99.99,,2013-04-08 09:12:00,
2013-04-08 05:23:00,56.0,49.0,-100.00,WSW,248,4.0,6.0,76,0.00,,,-99.99,,2013-04-08 09:23:00,
2013-04-08 05:33:00,56.0,49.0,-100.00,WSW,248,4.0,6.0,76,0.00,,,-99.99,,2013-04-08 09:33:00,
2013-04-08 05:43:00,56.0,49.0,-100.00,WSW,248,4.0,6.0,76,0.00,,,-99.99,,2013-04-08 09:43:00,
2013-04-08 05:53:00,56.0,49.0,-100.00,West,268,4.0,8.0,76,0.00,,,-99.99,,2013-04-08 09:53:00,
2013-04-08 06:03:00,56.0,49.0,-100.00,West,268,4.0,8.0,76,0.00,,,-99.99,,2013-04-08 10:03:00,
2013-04-08 06:13:00,55.0,49.0,-100.00,WSW,250,3.0,5.0,78,0.00,,,-99.99,,2013-04-08 10:13:00,
2013-04-08 06:23:00,55.0,49.0,-100.00,WSW,250,3.0,5.0,78,0.00,,,-99.99,,2013-04-08 10:23:00,
2013-04-08 06:33:00,55.0,49.0,-100.00,West,260,3.0,4.0,80,0.00,,,-99.99,,2013-04-08 10:33:00,
2013-04-08 06:43:00,53.0,48.0,-100.00,WSW,248,1.0,2.0,83,0.00,,,-99.99,,2013-04-08 10:43:00,
2013-04-08 06:53:00,53.0,48.0,-100.00,WSW,248,1.0,2.0,83,0.00,,,-99.99,,2013-04-08 10:53:00,
2013-04-08 07:03:00,53.0,48.0,-100.00,WSW,248,1.0,2.0,83,0.00,,,-99.99,,2013-04-08 11:03:00,
2013-04-08 07:12:00,52.0,48.0,-100.00,WSW,241,1.0,2.0,86,0.00,,,-99.99,,2013-04-08 11:12:00,
2013-04-08 07:22:00,52.0,49.0,-100.00,WSW,241,0.0,0.0,88,0.00,,,-99.99,,2013-04-08 11:22:00,
2013-04-08 07:32:00,52.0,49.0,-100.00,WSW,241,0.0,0.0,88,0.00,,,-99.99,,2013-04-08 11:32:00,
2013-04-08 07:42:00,52.0,49.0,-100.00,WSW,241,0.0,0.0,88,0.00,,,-99.99,,2013-04-08 11:42:00,
2013-04-08 07:53:00,51.0,48.0,-100.00,South,182,0.0,1.0,89,0.00,,,-99.99,,2013-04-08 11:53:00,
2013-04-08 08:03:00,51.0,49.0,-100.00,WSW,250,0.0,0.0,91,0.00,,,-99.99,,2013-04-08 12:03:00,
2013-04-08 08:12:00,51.0,49.0,-100.00,WSW,250,0.0,0.0,91,0.00,,,-99.99,,2013-04-08 12:12:00,
2013-04-08 08:23:00,53.0,50.0,-100.00,ESE,107,1.0,2.0,89,0.00,,,-99.99,,2013-04-08 12:23:00,
2013-04-08 08:33:00,53.0,50.0,-100.00,ESE,107,1.0,2.0,89,0.00,,,-99.99,,2013-04-08 12:33:00,
2013-04-08 08:42:00,55.0,51.0,-100.00,SSW,208,1.0,2.0,87,0.00,,,-99.99,,2013-04-08 12:42:00,
2013-04-08 08:53:00,55.0,51.0,-100.00,SSW,208,1.0,2.0,87,0.00,,,-99.99,,2013-04-08 12:53:00,
2013-04-08 09:03:00,55.0,51.0,-100.00,SSW,208,1.0,2.0,87,0.00,,,-99.99,,2013-04-08 13:03:00,
2013-04-08 09:12:00,59.0,52.0,-100.00,ENE,72,0.0,1.0,78,0.00,,,-99.99,,2013-04-08 13:12:00,
2013-04-08 09:22:00,59.0,52.0,-100.00,ENE,72,0.0,1.0,78,0.00,,,-99.99,,2013-04-08 13:22:00,
2013-04-08 09:32:00,62.0,52.0,-100.00,West,264,3.0,5.0,71,0.00,,,-99.99,,2013-04-08 13:32:00,
2013-04-08 09:43:00,62.0,52.0,-100.00,West,264,3.0,5.0,71,0.00,,,-99.99,,2013-04-08 13:43:00,
2013-04-08 09:53:00,64.0,53.0,-100.00,West,270,3.0,4.0,68,0.00,,,-99.99,,2013-04-08 13:53:00,
2013-04-08 10:03:00,64.0,53.0,-100.00,West,270,3.0,4.0,68,0.00,,,-99.99,,2013-04-08 14:03:00,
2013-04-08 10:12:00,67.0,54.0,-100.00,NW,318,3.0,4.0,62,0.00,,,-99.99,,2013-04-08 14:12:00,
2013-04-08 10:22:00,67.0,54.0,-100.00,NW,318,3.0,4.0,62,0.00,,,-99.99,,2013-04-08 14:22:00,
2013-04-08 10:33:00,68.0,54.0,-100.00,NW,311,4.0,7.0,60,0.00,,,-99.99,,2013-04-08 14:33:00,
2013-04-08 10:42:00,68.0,54.0,-100.00,NW,311,4.0,7.0,60,0.00,,,-99.99,,2013-04-08 14:42:00,
2013-04-08 10:52:00,69.0,53.0,-100.00,NW,312,6.0,10.0,55,0.00,,,-99.99,,2013-04-08 14:52:00,
2013-04-08 11:02:00,69.0,53.0,-100.00,NW,312,6.0,10.0,55,0.00,,,-99.99,,2013-04-08 15:02:00,
2013-04-08 11:12:00,71.0,53.0,-100.00,WNW,287,6.0,11.0,53,0.00,,,-99.99,,2013-04-08 15:12:00,
2013-04-08 11:22:00,71.0,53.0,-100.00,WNW,294,6.0,9.0,52,0.00,,,-99.99,,2013-04-08 15:22:00,
2013-04-08 11:34:00,71.0,53.0,-100.00,WNW,294,6.0,9.0,52,0.00,,,-99.99,,2013-04-08 15:34:00,
2013-04-08 11:43:00,71.0,53.0,-100.00,WNW,294,6.0,9.0,52,0.00,,,-99.99,,2013-04-08 15:43:00,
2013-04-08 11:53:00,72.0,53.0,-100.00,West,278,7.0,12.0,52,0.00,,,-99.99,,2013-04-08 15:53:00,
2013-04-08 12:03:00,72.0,53.0,-100.00,WNW,282,9.0,12.0,50,0.00,,,-99.99,,2013-04-08 16:03:00,
2013-04-08 12:13:00,72.0,53.0,-100.00,WNW,282,9.0,12.0,50,0.00,,,-99.99,,2013-04-08 16:13:00,
2013-04-08 12:23:00,72.0,53.0,-100.00,WNW,282,9.0,12.0,50,0.00,,,-99.99,,2013-04-08 16:23:00,
2013-04-08 12:33:00,73.0,53.0,-100.00,West,275,9.0,12.0,49,0.00,,,-99.99,,2013-04-08 16:33:00,
2013-04-08 12:42:00,73.0,53.0,-100.00,West,275,9.0,12.0,49,0.00,,,-99.99,,2013-04-08 16:42:00,
2013-04-08 13:03:00,75.0,51.0,-100.00,West,274,10.0,14.0,43,0.00,,,-99.99,,2013-04-08 17:03:00,
2013-04-08 13:12:00,75.0,51.0,-100.00,West,274,10.0,14.0,43,0.00,,,-99.99,,2013-04-08 17:12:00,
2013-04-08 13:23:00,75.0,51.0,-100.00,West,274,10.0,14.0,43,0.00,,,-99.99,,2013-04-08 17:23:00,
2013-04-08 13:32:00,76.0,50.0,-100.00,WSW,256,9.0,15.0,41,0.00,,,-99.99,,2013-04-08 17:32:00,
2013-04-08 13:43:00,76.0,50.0,-100.00,WSW,256,9.0,15.0,41,0.00,,,-99.99,,2013-04-08 17:43:00,
2013-04-08 13:53:00,76.0,50.0,-100.00,WSW,257,9.0,13.0,40,0.00,,,-99.99,,2013-04-08 17:53:00,
2013-04-08 14:02:00,76.0,50.0,-100.00,WSW,257,9.0,13.0,40,0.00,,,-99.99,,2013-04-08 18:02:00,
2013-04-08 14:12:00,78.0,51.0,-100.00,WSW,257,7.0,13.0,39,0.00,,,-99.99,,2013-04-08 18:12:00,
2013-04-08 14:23:00,77.0,47.0,-100.00,West,268,7.0,9.0,35,0.00,,,-99.99,,2013-04-08 18:23:00,
2013-04-08 14:32:00,77.0,47.0,-100.00,West,268,7.0,9.0,35,0.00,,,-99.99,,2013-04-08 18:32:00,
2013-04-08 14:42:00,77.0,47.0,-100.00,West,268,7.0,9.0,35,0.00,,,-99.99,,2013-04-08 18:42:00,
2013-04-08 14:53:00,76.0,47.0,-100.00,West,280,8.0,11.0,35,0.00,,,-99.99,,2013-04-08 18:53:00,
2013-04-08 15:03:00,77.0,47.0,-100.00,WNW,289,5.0,7.0,35,0.00,,,-99.99,,2013-04-08 19:03:00,
2013-04-08 15:12:00,77.0,47.0,-100.00,WNW,289,5.0,7.0,35,0.00,,,-99.99,,2013-04-08 19:12:00,
2013-04-08 15:23:00,77.0,47.0,-100.00,WNW,289,5.0,7.0,35,0.00,,,-99.99,,2013-04-08 19:23:00,
2013-04-08 15:33:00,78.0,47.0,-100.00,West,270,6.0,9.0,34,0.00,,,-99.99,,2013-04-08 19:33:00,
2013-04-08 15:42:00,78.0,47.0,-100.00,West,270,6.0,9.0,34,0.00,,,-99.99,,2013-04-08 19:42:00,
2013-04-08 15:53:00,78.0,47.0,-100.00,SW,234,6.0,9.0,34,0.00,,,-99.99,,2013-04-08 19:53:00,
2013-04-08 16:02:00,78.0,47.0,-100.00,SW,234,6.0,9.0,34,0.00,,,-99.99,,2013-04-08 20:02:00,
2013-04-08 16:12:00,80.0,45.0,-100.00,West,271,6.0,15.0,29,0.00,,,-99.99,,2013-04-08 20:12:00,
2013-04-08 16:23:00,80.0,45.0,-100.00,West,271,6.0,15.0,29,0.00,,,-99.99,,2013-04-08 20:23:00,
2013-04-08 16:33:00,79.0,44.0,-100.00,WSW,257,10.0,18.0,29,0.00,,,-99.99,,2013-04-08 20:33:00,
2013-04-08 16:43:00,79.0,44.0,-100.00,WSW,257,10.0,18.0,29,0.00,,,-99.99,,2013-04-08 20:43:00,
2013-04-08 16:52:00,80.0,46.0,-100.00,West,271,9.0,14.0,30,0.00,,,-99.99,,2013-04-08 20:52:00,
2013-04-08 17:02:00,80.0,46.0,-100.00,WSW,251,8.0,13.0,31,0.00,,,-99.99,,2013-04-08 21:02:00,
2013-04-08 17:12:00,80.0,46.0,-100.00,WSW,251,8.0,13.0,31,0.00,,,-99.99,,2013-04-08 21:12:00,
2013-04-08 17:22:00,80.0,46.0,-100.00,WSW,251,8.0,13.0,31,0.00,,,-99.99,,2013-04-08 21:22:00,
2013-04-08 17:33:00,79.0,47.0,-100.00,West,264,12.0,18.0,32,0.00,,,-99.99,,2013-04-08 21:33:00,
2013-04-08 17:40:00,79.0,46.0,-100.00,WSW,250,6.0,10.0,31,0.00,,,-99.99,,2013-04-08 21:40:00,
2013-04-08 17:43:00,79.0,47.0,-100.00,West,264,12.0,18.0,32,0.00,,,-99.99,,2013-04-08 21:43:00,
2013-04-08 17:53:00,79.0,46.0,-100.00,West,260,11.0,15.0,32,0.00,,,-99.99,,2013-04-08 21:53:00,
2013-04-08 18:03:00,79.0,46.0,-100.00,WSW,250,6.0,10.0,31,0.00,,,-99.99,,2013-04-08 22:03:00,
2013-04-08 18:13:00,79.0,46.0,-100.00,WSW,250,6.0,10.0,31,0.00,,,-99.99,,2013-04-08 22:13:00,
2013-04-08 18:23:00,79.0,46.0,-100.00,WSW,250,6.0,10.0,31,0.00,,,-99.99,,2013-04-08 22:23:00,
2013-04-08 18:32:00,79.0,46.0,-100.00,WSW,250,6.0,10.0,31,0.00,,,-99.99,,2013-04-08 22:32:00,
2013-04-08 18:53:00,78.0,46.0,-100.00,WSW,258,9.0,14.0,32,0.00,,,-99.99,,2013-04-08 22:53:00,
2013-04-08 19:03:00,78.0,46.0,-100.00,WSW,258,9.0,14.0,32,0.00,,,-99.99,,2013-04-08 23:03:00,
2013-04-08 19:13:00,78.0,46.0,-100.00,West,268,10.0,15.0,33,0.00,,,-99.99,,2013-04-08 23:13:00,
2013-04-08 19:22:00,78.0,46.0,-100.00,West,268,10.0,15.0,33,0.00,,,-99.99,,2013-04-08 23:22:00,
2013-04-08 19:32:00,77.0,46.0,-100.00,WSW,248,7.0,11.0,34,0.00,,,-99.99,,2013-04-08 23:32:00,
2013-04-08 19:43:00,77.0,46.0,-100.00,WSW,248,7.0,11.0,34,0.00,,,-99.99,,2013-04-08 23:43:00,
2013-04-08 19:52:00,76.0,47.0,-100.00,WSW,241,4.0,8.0,35,0.00,,,-99.99,,2013-04-08 23:52:00,
2013-04-08 20:02:00,74.0,48.0,-100.00,WSW,241,3.0,6.0,39,0.00,,,-99.99,,2013-04-09 00:02:00,
2013-04-08 20:13:00,74.0,48.0,-100.00,WSW,241,3.0,6.0,39,0.00,,,-99.99,,2013-04-09 00:13:00,
2013-04-08 20:22:00,74.0,48.0,-100.00,WSW,241,3.0,6.0,39,0.00,,,-99.99,,2013-04-09 00:22:00,
2013-04-08 20:32:00,-999.0,48.0,-100.00,SW,227,1.0,3.0,-999,0.00,,,-99.99,,2013-04-09 00:32:00,
2013-04-08 20:42:00,-999.0,48.0,-100.00,SW,227,1.0,3.0,-999,0.00,,,-99.99,,2013-04-09 00:42:00,
2013-04-08 20:52:00,70.0,49.0,-100.00,SW,223,2.0,4.0,48,0.00,,,-99.99,,2013-04-09 00:52:00,
2013-04-08 21:03:00,70.0,49.0,-100.00,SW,223,2.0,4.0,48,0.00,,,-99.99,,2013-04-09 01:03:00,
2013-04-08 21:12:00,69.0,50.0,-100.00,SW,223,1.0,3.0,51,0.00,,,-99.99,,2013-04-09 01:12:00,
2013-04-08 21:22:00,69.0,50.0,-100.00,SW,223,1.0,3.0,51,0.00,,,-99.99,,2013-04-09 01:22:00,
2013-04-08 21:34:00,69.0,51.0,-100.00,SSW,200,1.0,2.0,52,0.00,,,-99.99,,2013-04-09 01:34:00,
2013-04-08 21:40:00,67.0,51.0,-100.00,SW,219,2.0,3.0,56,0.00,,,-99.99,,2013-04-09 01:40:00,
2013-04-08 21:42:00,69.0,51.0,-100.00,SSW,200,1.0,2.0,52,0.00,,,-99.99,,2013-04-09 01:42:00,
2013-04-08 21:53:00,68.0,51.0,-100.00,SSW,210,1.0,2.0,54,0.00,,,-99.99,,2013-04-09 01:53:00,
2013-04-08 22:02:00,67.0,51.0,-100.00,SW,219,2.0,3.0,56,0.00,,,-99.99,,2013-04-09 02:02:00,
2013-04-08 22:13:00,67.0,51.0,-100.00,SW,219,2.0,3.0,56,0.00,,,-99.99,,2013-04-09 02:13:00,
2013-04-08 22:22:00,67.0,51.0,-100.00,SW,219,2.0,3.0,56,0.00,,,-99.99,,2013-04-09 02:22:00,
2013-04-08 22:33:00,67.0,51.0,-100.00,SW,219,2.0,3.0,56,0.00,,,-99.99,,2013-04-09 02:33:00,
2013-04-08 23:12:00,67.0,51.0,-100.00,SW,233,2.0,6.0,58,0.00,,,-99.99,,2013-04-09 03:12:00,
2013-04-08 23:22:00,67.0,51.0,-100.00,SW,233,2.0,6.0,58,0.00,,,-99.99,,2013-04-09 03:22:00,
2013-04-08 23:33:00,68.0,51.0,-100.00,SW,232,4.0,9.0,54,0.00,,,-99.99,,2013-04-09 03:33:00,
2013-04-08 23:43:00,68.0,51.0,-100.00,SW,232,4.0,9.0,54,0.00,,,-99.99,,2013-04-09 03:43:00,
2013-04-08 23:53:00,67.0,51.0,-100.00,SW,233,3.0,5.0,56,0.00,,,-99.99,,2013-04-09 03:53:00,